Time;durP1;ratioP1;P1;durP2;ratioP2;P2;SDS_P1;SDS_P2;PMS_P1;PMS_P2;Temp;Humidity;BMP_temperature;BMP_pressure;BME280_temperature;BME280_humidity;BME280_pressure;Samples;Min_cycle;Max_cycle;Signal;HPM_P1;HPM_P2
2024/02/16 00:01:17;;;;;;;;;;;;;;;10.57;100.00;101168.59;4137922;28;19936;-86
2024/02/16 00:03:43;;;;;;;;;;;;;;;10.55;100.00;101171.47;4139103;28;19953;-86
2024/02/16 00:06:08;;;;;;;;;;;;;;;10.54;100.00;101166.22;4138831;28;19995;-85
2024/02/16 00:08:30;;;;;;;;;;;;;;;10.52;100.00;101163.69;4139476;28;19964;-85
2024/02/16 00:10:53;;;;;;;;;;;;;;;10.51;100.00;101162.00;4142387;28;19936;-85
2024/02/16 00:13:15;;;;;;;;;;;;;;;10.51;100.00;101161.16;4142157;28;19957;-86
2024/02/16 00:15:39;;;;;;;;;;;;;;;10.49;100.00;101152.38;4141963;28;19951;-85
2024/02/16 00:18:04;;;;;;;;;;;;;;;10.48;100.00;101156.94;4134133;28;20442;-86
2024/02/16 00:20:26;;;;;;;;;;;;;;;10.46;100.00;101151.69;4128989;28;20029;-85
2024/02/16 00:22:47;;;;;;;;;;;;;;;10.45;100.00;101152.72;4141697;28;20299;-86
2024/02/16 00:25:12;;;;;;;;;;;;;;;10.44;100.00;101153.72;4128083;28;19933;-86
2024/02/16 00:27:33;;;;;;;;;;;;;;;10.42;100.00;101157.59;4141232;28;19936;-85
2024/02/16 00:29:55;;;;;;;;;;;;;;;10.40;100.00;101163.16;4142021;28;20493;-83
2024/02/16 00:32:16;;;;;;;;;;;;;;;10.40;100.00;101167.72;4142438;28;19932;-87
2024/02/16 00:34:37;;;;;;;;;;;;;;;10.38;100.00;101154.38;4140329;28;19933;-86
2024/02/16 00:37:03;;;;;;;;;;;;;;;10.38;100.00;101158.94;4140190;28;19940;-86
2024/02/16 00:39:24;;;;;;;;;;;;;;;10.36;100.00;101153.72;4142857;28;20304;-86
2024/02/16 00:41:46;;;;;;;;;;;;;;;10.36;100.00;101158.25;4142281;28;19944;-86
2024/02/16 00:44:07;;;;;;;;;;;;;;;10.35;100.00;101156.56;4142034;28;20039;-84
2024/02/16 00:46:28;;;;;;;;;;;;;;;10.33;100.00;101145.94;4141762;28;20035;-86
2024/02/16 00:48:53;;;;;;;;;;;;;;;10.32;100.00;101144.22;4139142;28;19932;-89
2024/02/16 00:51:14;;;;;;;;;;;;;;;10.32;100.00;101138.81;4141368;28;19932;-87
2024/02/16 00:53:37;;;;;;;;;;;;;;;10.31;100.00;101139.81;4142054;28;19957;-87
2024/02/16 00:55:57;;;;;;;;;;;;;;;10.29;100.00;101139.97;4141676;28;19935;-88
2024/02/16 00:58:19;;;;;;;;;;;;;;;10.27;100.00;101138.47;4141968;28;19972;-88
2024/02/16 01:00:40;;;;;;;;;;;;;;;10.26;100.00;101137.59;4142051;28;20068;-88
2024/02/16 01:03:01;;;;;;;;;;;;;;;10.26;100.00;101139.47;4141829;28;20175;-87
2024/02/16 01:05:23;;;;;;;;;;;;;;;10.24;100.00;101131.53;4140925;28;19972;-87
2024/02/16 01:07:44;;;;;;;;;;;;;;;10.23;100.00;101129.84;4141923;28;19936;-86
2024/02/16 01:10:09;;;;;;;;;;;;;;;10.22;100.00;101125.47;4126365;28;20353;-86
2024/02/16 01:12:31;;;;;;;;;;;;;;;10.22;100.00;101133.56;4142906;28;19936;-86
2024/02/16 01:14:52;;;;;;;;;;;;;;;10.21;100.00;101128.31;4141403;28;19964;-87
2024/02/16 01:17:13;;;;;;;;;;;;;;;10.20;100.00;101130.19;4140892;28;20343;-86
2024/02/16 01:19:34;;;;;;;;;;;;;;;10.19;100.00;101133.91;4142423;28;19935;-86
2024/02/16 01:21:58;;;;;;;;;;;;;;;10.18;100.00;101128.66;4141570;28;20025;-87
2024/02/16 01:24:19;;;;;;;;;;;;;;;10.20;100.00;101142.81;4141027;28;20025;-86
2024/02/16 01:26:42;;;;;;;;;;;;;;;10.16;100.00;101120.72;4126680;28;19969;-86
2024/02/16 01:29:03;;;;;;;;;;;;;;;10.16;100.00;101126.13;4141148;28;19984;-86
2024/02/16 01:31:24;;;;;;;;;;;;;;;10.15;100.00;101126.28;4140907;28;19945;-88
2024/02/16 01:33:44;;;;;;;;;;;;;;;10.13;100.00;101118.34;4141648;28;20284;-87
2024/02/16 01:36:05;;;;;;;;;;;;;;;10.11;100.00;101120.38;4139455;28;19932;-87
2024/02/16 01:38:26;;;;;;;;;;;;;;;10.10;100.00;101119.53;4140473;28;20016;-87
2024/02/16 01:40:47;;;;;;;;;;;;;;;10.11;100.00;101125.78;4139795;28;19969;-88
2024/02/16 01:43:10;;;;;;;;;;;;;;;10.10;100.00;101126.78;4140281;28;20284;-86
2024/02/16 01:45:31;;;;;;;;;;;;;;;10.08;100.00;101124.25;4140990;28;19937;-87
2024/02/16 01:47:52;;;;;;;;;;;;;;;10.07;100.00;101125.25;4141560;28;20012;-88
2024/02/16 01:50:13;;;;;;;;;;;;;;;10.04;100.00;101112.06;4138742;28;20466;-86
2024/02/16 01:52:36;;;;;;;;;;;;;;;10.06;100.00;101122.72;4140882;28;19977;-87
2024/02/16 01:54:57;;;;;;;;;;;;;;;10.05;100.00;101118.34;4140638;28;19932;-88
2024/02/16 01:57:18;;;;;;;;;;;;;;;10.02;100.00;101111.41;4140986;28;19931;-85
2024/02/16 01:59:45;;;;;;;;;;;;;;;10.01;100.00;101107.00;4140258;28;20546;-87
2024/02/16 02:02:06;;;;;;;;;;;;;;;10.03;100.00;101104.16;4140750;28;19973;-85
2024/02/16 02:04:27;;;;;;;;;;;;;;;10.02;100.00;101088.97;4140927;28;19932;-86
2024/02/16 02:06:47;;;;;;;;;;;;;;;10.02;100.00;101092.50;4140448;28;19935;-86
2024/02/16 02:09:09;;;;;;;;;;;;;;;10.02;100.00;101088.97;4140721;28;19936;-86
2024/02/16 02:11:30;;;;;;;;;;;;;;;10.01;100.00;101087.28;4139620;28;19932;-86
2024/02/16 02:13:50;;;;;;;;;;;;;;;10.01;100.00;101085.41;4139484;28;20028;-85
2024/02/16 02:16:13;;;;;;;;;;;;;;;10.01;100.00;101076.50;4138983;28;19937;-87
2024/02/16 02:18:33;;;;;;;;;;;;;;;10.01;100.00;101084.59;4124175;28;20440;-86
2024/02/16 02:20:53;;;;;;;;;;;;;;;10.00;100.00;101078.34;4123717;28;19995;-85
2024/02/16 02:23:16;;;;;;;;;;;;;;;10.01;100.00;101084.59;4123056;28;19977;-86
2024/02/16 02:25:37;;;;;;;;;;;;;;;9.99;100.00;101076.66;4125617;28;19933;-86
2024/02/16 02:27:58;;;;;;;;;;;;;;;9.99;100.00;101076.66;4123348;28;19953;-86
2024/02/16 02:30:20;;;;;;;;;;;;;;;9.99;100.00;101062.31;4124259;28;19937;-85
2024/02/16 02:32:42;;;;;;;;;;;;;;;9.97;100.00;101065.19;4123139;28;20024;-84
2024/02/16 02:35:03;;;;;;;;;;;;;;;9.97;100.00;101057.09;4123510;28;19991;-84
2024/02/16 02:37:24;;;;;;;;;;;;;;;9.98;100.00;101060.63;4123745;28;20396;-84
2024/02/16 02:39:47;;;;;;;;;;;;;;;9.96;100.00;101054.56;4123474;28;19976;-85
2024/02/16 02:42:09;;;;;;;;;;;;;;;9.96;100.00;101059.97;4121458;28;19937;-85
2024/02/16 02:44:31;;;;;;;;;;;;;;;9.95;100.00;101047.47;4108461;28;20300;-85
2024/02/16 02:46:52;;;;;;;;;;;;;;;9.92;100.00;101044.09;4123027;28;19940;-87
2024/02/16 02:49:12;;;;;;;;;;;;;;;9.93;100.00;101043.06;4123256;28;20008;-86
2024/02/16 02:51:33;;;;;;;;;;;;;;;9.92;100.00;101045.94;4109749;28;19936;-85
2024/02/16 02:53:56;;;;;;;;;;;;;;;9.92;100.00;101036.00;4107607;28;20490;-87
2024/02/16 02:56:21;;;;;;;;;;;;;;;9.92;100.00;101035.13;4123049;28;20012;-86
2024/02/16 02:58:41;;;;;;;;;;;;;;;9.92;100.00;101036.00;4122844;28;19980;-86
2024/02/16 03:01:02;;;;;;;;;;;;;;;9.91;100.00;101028.91;4124200;28;19936;-86
2024/02/16 03:03:25;;;;;;;;;;;;;;;9.90;100.00;101029.06;4123491;28;19936;-85
2024/02/16 03:05:46;;;;;;;;;;;;;;;9.89;100.00;101032.78;4124532;28;20008;-86
2024/02/16 03:08:07;;;;;;;;;;;;;;;9.88;100.00;101021.16;4122432;28;19937;-86
2024/02/16 03:10:34;;;;;;;;;;;;;;;9.87;100.00;101019.47;4121644;28;20024;-85
2024/02/16 03:12:59;;;;;;;;;;;;;;;9.87;100.00;101015.91;4122299;28;20381;-86
2024/02/16 03:15:20;;;;;;;;;;;;;;;9.86;100.00;101025.88;4122790;28;19972;-85
2024/02/16 03:17:41;;;;;;;;;;;;;;;9.86;100.00;101025.88;4123523;28;19933;-87
2024/02/16 03:20:02;;;;;;;;;;;;;;;9.84;100.00;101029.75;4121393;28;20411;-87
2024/02/16 03:22:23;;;;;;;;;;;;;;;9.84;100.00;101035.13;4122340;28;19933;-86
2024/02/16 03:24:45;;;;;;;;;;;;;;;9.82;100.00;101032.59;4122890;28;19936;-86
2024/02/16 03:27:07;;;;;;;;;;;;;;;9.82;100.00;101031.75;4121357;28;19937;-85
2024/02/16 03:29:33;;;;;;;;;;;;;;;9.81;100.00;101040.84;4122941;28;20017;-87
2024/02/16 03:31:54;;;;;;;;;;;;;;;9.80;100.00;101040.03;4122446;28;19933;-85
2024/02/16 03:34:15;;;;;;;;;;;;;;;9.80;100.00;101042.72;4122902;28;19941;-85
2024/02/16 03:36:35;;;;;;;;;;;;;;;9.78;100.00;101038.50;4113839;28;20595;-85
2024/02/16 03:38:56;;;;;;;;;;;;;;;9.78;100.00;101039.34;4123905;28;19981;-86
2024/02/16 03:41:18;;;;;;;;;;;;;;;9.77;100.00;101034.97;4123549;28;20017;-85
2024/02/16 03:43:40;;;;;;;;;;;;;;;9.77;100.00;101028.72;4123232;28;20019;-86
2024/02/16 03:46:02;;;;;;;;;;;;;;;9.77;100.00;101024.16;4125756;28;19937;-86
2024/02/16 03:48:23;;;;;;;;;;;;;;;9.76;100.00;101017.06;4125224;28;19977;-85
2024/02/16 03:50:46;;;;;;;;;;;;;;;9.77;100.00;101017.94;4126398;28;20053;-85
2024/02/16 03:53:10;;;;;;;;;;;;;;;9.78;100.00;101011.50;4125581;28;19933;-85
2024/02/16 03:55:36;;;;;;;;;;;;;;;9.76;100.00;101003.59;4125627;28;19970;-85
2024/02/16 03:57:56;;;;;;;;;;;;;;;9.76;100.00;101008.16;4125485;28;20007;-85
2024/02/16 04:00:17;;;;;;;;;;;;;;;9.76;100.00;101018.94;4125853;28;20260;-85
2024/02/16 04:02:40;;;;;;;;;;;;;;;9.73;100.00;101014.69;4125680;28;19937;-86
2024/02/16 04:05:03;;;;;;;;;;;;;;;9.70;100.00;101009.63;4126190;28;19933;-85
2024/02/16 04:07:26;;;;;;;;;;;;;;;9.72;100.00;101015.72;4125313;28;20029;-86
2024/02/16 04:09:49;;;;;;;;;;;;;;;9.72;100.00;101004.94;4125856;28;20379;-86
2024/02/16 04:12:10;;;;;;;;;;;;;;;9.71;100.00;101001.38;4126342;28;19932;-86
2024/02/16 04:14:32;;;;;;;;;;;;;;;9.72;100.00;101013.03;4133046;28;19961;-85
2024/02/16 04:16:57;;;;;;;;;;;;;;;9.71;100.00;101005.94;4142007;28;20299;-85
2024/02/16 04:19:19;;;;;;;;;;;;;;;9.71;100.00;101001.38;4142502;28;19937;-86
2024/02/16 04:21:41;;;;;;;;;;;;;;;9.71;100.00;101005.94;4142612;28;19980;-86
2024/02/16 04:24:03;;;;;;;;;;;;;;;9.69;100.00;101014.19;4132276;28;19969;-85
2024/02/16 04:26:24;;;;;;;;;;;;;;;9.68;100.00;101004.41;4142973;28;19941;-87
2024/02/16 04:28:44;;;;;;;;;;;;;;;9.68;100.00;100999.00;4143726;28;19936;-85
2024/02/16 04:31:05;;;;;;;;;;;;;;;9.68;100.00;100998.19;4141620;28;20028;-85
2024/02/16 04:33:26;;;;;;;;;;;;;;;9.67;100.00;100996.47;4140909;28;20622;-85
2024/02/16 04:35:50;;;;;;;;;;;;;;;9.66;100.00;100984.03;4141680;28;19933;-85
2024/02/16 04:38:11;;;;;;;;;;;;;;;9.67;100.00;100988.38;4126735;28;19933;-85
2024/02/16 04:40:32;;;;;;;;;;;;;;;9.66;100.00;100984.84;4142502;28;20331;-86
2024/02/16 04:42:55;;;;;;;;;;;;;;;9.65;100.00;100987.72;4142905;28;20024;-84
2024/02/16 04:45:16;;;;;;;;;;;;;;;9.63;100.00;100987.88;4140396;28;19936;-87
2024/02/16 04:47:37;;;;;;;;;;;;;;;9.63;100.00;100987.88;4141919;28;19936;-88
2024/02/16 04:49:58;;;;;;;;;;;;;;;9.63;100.00;100989.75;4141964;28;19933;-88
2024/02/16 04:52:24;;;;;;;;;;;;;;;9.62;100.00;100986.19;4126312;28;19976;-86
2024/02/16 04:54:44;;;;;;;;;;;;;;;9.64;100.00;100983.31;4141984;28;19983;-85
2024/02/16 04:57:07;;;;;;;;;;;;;;;9.64;100.00;100981.50;4126526;28;19937;-85
2024/02/16 04:59:38;;;;;;;;;;;;;;;9.67;100.00;100980.31;4127038;28;20036;-85
2024/02/16 05:01:59;;;;;;;;;;;;;;;9.66;100.00;100976.78;4127968;28;20367;-86
2024/02/16 05:04:25;;;;;;;;;;;;;;;9.66;100.00;100978.63;4145686;28;20007;-83
2024/02/16 05:06:46;;;;;;;;;;;;;;;9.66;100.00;100982.16;4153792;28;20287;-83
2024/02/16 05:09:08;;;;;;;;;;;;;;;9.66;100.00;100968.69;4148384;28;19968;-83
2024/02/16 05:11:29;;;;;;;;;;;;;;;9.64;100.00;100968.00;4148898;28;20371;-82
2024/02/16 05:13:50;;;;;;;;;;;;;;;9.65;100.00;100971.53;4163468;28;19968;-83
2024/02/16 05:16:11;;;;;;;;;;;;;;;9.64;100.00;100968.00;4152145;28;19948;-83
2024/02/16 05:18:32;;;;;;;;;;;;;;;9.64;100.00;100964.44;4151361;28;19932;-83
2024/02/16 05:21:28;;;;;;;;;;;;;;;9.65;100.00;100960.75;4150566;28;19972;-84
2024/02/16 05:23:50;;;;;;;;;;;;;;;9.63;100.00;100970.88;4130411;28;19980;-83
2024/02/16 05:26:12;;;;;;;;;;;;;;;9.62;100.00;100967.31;4152019;28;19967;-85
2024/02/16 05:28:33;;;;;;;;;;;;;;;9.61;100.00;100964.78;4151571;28;19971;-85
2024/02/16 05:31:20;;;;;;;;;;;;;;;9.60;100.00;100972.03;4151652;28;19932;-85
2024/02/16 05:33:44;;;;;;;;;;;;;;;9.59;100.00;100970.34;4156682;28;19932;-85
2024/02/16 05:36:06;;;;;;;;;;;;;;;9.58;100.00;100960.56;4118729;28;19977;-83
2024/02/16 05:38:35;;;;;;;;;;;;;;;9.59;100.00;100969.50;4121449;28;19933;-83
2024/02/16 05:41:17;;;;;;;;;;;;;;;9.59;100.00;100962.25;4141144;28;19932;-84
2024/02/16 05:44:04;;;;;;;;;;;;;;;9.60;100.00;100963.09;4148245;28;19933;-84
2024/02/16 05:46:25;;;;;;;;;;;;;;;9.60;100.00;100957.72;4137609;28;20041;-84
2024/02/16 05:48:47;;;;;;;;;;;;;;;9.59;100.00;100956.84;4151350;28;20044;-84
2024/02/16 05:54:40;;;;;;;;;;;;;;;9.60;100.00;100949.63;4149251;28;19996;-83
2024/02/16 05:57:28;;;;;;;;;;;;;;;9.59;100.00;100946.06;4148150;28;20002;-86
2024/02/16 05:59:49;;;;;;;;;;;;;;;9.58;100.00;100941.69;4144151;28;20287;-85
2024/02/16 06:02:11;;;;;;;;;;;;;;;9.57;100.00;100938.13;4141367;28;19951;-86
2024/02/16 06:04:32;;;;;;;;;;;;;;;9.58;100.00;100947.09;4141164;28;20010;-87
2024/02/16 06:06:53;;;;;;;;;;;;;;;9.57;100.00;100948.09;4141263;28;19936;-83
2024/02/16 06:09:14;;;;;;;;;;;;;;;9.56;100.00;100941.00;4141320;28;19995;-83
2024/02/16 06:11:37;;;;;;;;;;;;;;;9.55;100.00;100939.34;4141523;28;19932;-85
2024/02/16 06:14:00;;;;;;;;;;;;;;;9.54;100.00;100937.63;4140896;28;19932;-83
2024/02/16 06:16:22;;;;;;;;;;;;;;;9.54;100.00;100943.91;4139816;28;20385;-87
2024/02/16 06:18:43;;;;;;;;;;;;;;;9.52;100.00;100942.34;4141380;28;19979;-85
2024/02/16 06:21:04;;;;;;;;;;;;;;;9.52;100.00;100947.75;4136940;28;19933;-84
2024/02/16 06:23:25;;;;;;;;;;;;;;;9.51;100.00;100948.75;4137317;28;19932;-90
2024/02/16 06:25:46;;;;;;;;;;;;;;;9.49;100.00;100940.81;4139775;28;20803;-83
2024/02/16 06:28:09;;;;;;;;;;;;;;;9.48;100.00;100938.28;4142307;28;19983;-86
2024/02/16 06:30:32;;;;;;;;;;;;;;;9.49;100.00;100930.03;4140132;28;19937;-87
2024/02/16 06:32:54;;;;;;;;;;;;;;;9.48;100.00;100939.16;4125944;28;20074;-85
2024/02/16 06:35:15;;;;;;;;;;;;;;;9.48;100.00;100931.06;4139558;28;20287;-87
2024/02/16 06:37:37;;;;;;;;;;;;;;;9.47;100.00;100942.84;4140843;28;19940;-86
2024/02/16 06:39:57;;;;;;;;;;;;;;;9.47;100.00;100944.72;4140463;28;19977;-84
2024/02/16 06:42:18;;;;;;;;;;;;;;;9.47;100.00;100942.03;4138149;28;19937;-85
2024/02/16 06:44:38;;;;;;;;;;;;;;;9.48;100.00;100944.56;4139006;28;19972;-87
2024/02/16 06:47:01;;;;;;;;;;;;;;;9.48;100.00;100935.59;4139024;28;19956;-86
2024/02/16 06:49:22;;;;;;;;;;;;;;;9.47;100.00;100928.53;4138363;28;20015;-85
2024/02/16 06:51:55;;;;;;;;;;;;;;;9.49;100.00;100934.59;4139367;28;19933;-85
2024/02/16 06:54:15;;;;;;;;;;;;;;;9.47;100.00;100939.31;4124801;28;20015;-86
2024/02/16 06:56:36;;;;;;;;;;;;;;;9.46;100.00;100957.34;4143304;28;19940;-87
2024/02/16 06:58:57;;;;;;;;;;;;;;;9.46;100.00;100935.75;4141141;28;19931;-85
2024/02/16 07:01:20;;;;;;;;;;;;;;;9.46;100.00;100943.03;4139914;28;19932;-85
2024/02/16 07:03:44;;;;;;;;;;;;;;;9.46;100.00;100943.03;4140893;28;19961;-87
2024/02/16 07:06:07;;;;;;;;;;;;;;;9.47;100.00;100939.31;4126053;28;20507;-86
2024/02/16 07:08:28;;;;;;;;;;;;;;;9.47;100.00;100944.72;4125436;28;20324;-85
2024/02/16 07:10:52;;;;;;;;;;;;;;;9.48;100.00;100944.56;4139843;28;19952;-85
2024/02/16 07:13:14;;;;;;;;;;;;;;;9.48;100.00;100935.59;4139467;28;20007;-85
2024/02/16 07:15:35;;;;;;;;;;;;;;;9.47;100.00;100942.84;4138236;28;19979;-85
2024/02/16 07:18:03;;;;;;;;;;;;;;;9.46;100.00;100935.75;4140477;28;20443;-87
2024/02/16 07:20:26;;;;;;;;;;;;;;;9.49;100.00;100929.22;4112526;28;20366;-86
2024/02/16 07:22:47;;;;;;;;;;;;;;;9.48;100.00;100925.69;4133714;28;19992;-86
2024/02/16 07:25:08;;;;;;;;;;;;;;;9.49;100.00;100931.91;4123845;28;19961;-86
2024/02/16 07:27:29;;;;;;;;;;;;;;;9.48;100.00;100932.91;4131456;28;19937;-87
2024/02/16 07:29:50;;;;;;;;;;;;;;;9.49;100.00;100940.00;4139901;28;20380;-85
2024/02/16 07:32:10;;;;;;;;;;;;;;;9.49;100.00;100931.91;4140205;28;20023;-87
2024/02/16 07:34:30;;;;;;;;;;;;;;;9.50;100.00;100941.69;4139198;28;19956;-86
2024/02/16 07:36:53;;;;;;;;;;;;;;;9.50;100.00;100933.59;4139435;28;19933;-85
2024/02/16 07:39:13;;;;;;;;;;;;;;;9.49;100.00;100938.13;4139695;28;20012;-87
2024/02/16 07:41:34;;;;;;;;;;;;;;;9.50;100.00;100930.91;4140706;28;19932;-86
2024/02/16 07:43:54;;;;;;;;;;;;;;;9.51;100.00;100933.44;4139438;28;19976;-87
2024/02/16 07:46:15;;;;;;;;;;;;;;;9.52;100.00;100940.50;4139896;28;20021;-87
2024/02/16 07:48:36;;;;;;;;;;;;;;;9.53;100.00;100928.72;4132360;28;19981;-85
2024/02/16 07:50:59;;;;;;;;;;;;;;;9.56;100.00;100935.59;4140668;28;19972;-85
2024/02/16 07:53:21;;;;;;;;;;;;;;;9.56;100.00;100932.91;4139309;28;19932;-86
2024/02/16 07:55:42;;;;;;;;;;;;;;;9.58;100.00;100930.91;4123647;28;20377;-88
2024/02/16 07:58:03;;;;;;;;;;;;;;;9.61;100.00;100929.72;4140394;28;19995;-86
2024/02/16 08:00:23;;;;;;;;;;;;;;;9.61;100.00;100927.88;4139486;28;20037;-85
2024/02/16 08:02:44;;;;;;;;;;;;;;;9.62;100.00;100924.16;4126249;28;19944;-85
2024/02/16 08:05:06;;;;;;;;;;;;;;;9.65;100.00;100923.00;4137584;28;19945;-85
2024/02/16 08:07:27;;;;;;;;;;;;;;;9.68;100.00;100925.38;4139887;28;19941;-87
2024/02/16 08:09:49;;;;;;;;;;;;;;;9.70;100.00;100934.13;4139525;28;20024;-86
2024/02/16 08:12:10;;;;;;;;;;;;;;;9.72;100.00;100932.94;4142313;28;19933;-87
2024/02/16 08:14:32;;;;;;;;;;;;;;;9.77;100.00;100931.63;4141218;28;19980;-87
2024/02/16 08:16:53;;;;;;;;;;;;;;;9.80;100.00;100933.97;4141258;28;20016;-85
2024/02/16 08:19:14;;;;;;;;;;;;;;;9.84;100.00;100936.19;4130170;28;19937;-86
2024/02/16 08:21:38;;;;;;;;;;;;;;;9.88;100.00;100944.78;4132443;28;19933;-83
2024/02/16 08:23:59;;;;;;;;;;;;;;;9.92;100.00;100946.97;4137825;28;20432;-85
2024/02/16 08:26:21;;;;;;;;;;;;;;;9.97;100.00;100948.31;4133540;28;19932;-87
2024/02/16 08:28:44;;;;;;;;;;;;;;;10.01;100.00;100953.19;4129965;28;19932;-84
2024/02/16 08:31:05;;;;;;;;;;;;;;;10.06;100.00;100950.00;4131901;28;20028;-84
2024/02/16 08:33:26;;;;;;;;;;;;;;;10.09;100.00;100946.97;4133364;28;19933;-86
2024/02/16 08:35:46;;;;;;;;;;;;;;;10.12;100.00;100943.91;4119079;28;19977;-84
2024/02/16 08:38:10;;;;;;;;;;;;;;;10.16;100.00;100936.34;4133170;28;19932;-87
2024/02/16 08:40:31;;;;;;;;;;;;;;;10.20;100.00;100929.59;4122855;28;19981;-85
2024/02/16 08:42:53;;;;;;;;;;;;;;;10.24;100.00;100920.97;4133541;28;20471;-86
2024/02/16 08:45:15;;;;;;;;;;;;;;;10.28;100.00;100930.44;4124588;28;19964;-84
2024/02/16 08:47:36;;;;;;;;;;;;;;;10.32;100.00;100930.94;4130324;28;19948;-84
2024/02/16 08:49:57;;;;;;;;;;;;;;;10.35;100.00;100932.47;4118902;28;20403;-82
2024/02/16 08:52:17;;;;;;;;;;;;;;;10.39;100.00;100923.88;4114700;28;19953;-84
2024/02/16 08:54:41;;;;;;;;;;;;;;;10.40;100.00;100928.25;4127614;28;19956;-85
2024/02/16 08:57:02;;;;;;;;;;;;;;;10.43;100.00;100927.91;4133837;28;20018;-84
2024/02/16 08:59:25;;;;;;;;;;;;;;;10.45;100.00;100927.72;4134427;28;20384;-85
2024/02/16 09:01:45;;;;;;;;;;;;;;;10.48;100.00;100921.16;4113507;28;19937;-86
2024/02/16 09:04:07;;;;;;;;;;;;;;;10.50;100.00;100924.50;4133220;28;19940;-85
2024/02/16 09:06:34;;;;;;;;;;;;;;;10.51;100.00;100928.91;4110939;28;19997;-85
2024/02/16 09:08:55;;;;;;;;;;;;;;;10.55;100.00;100923.00;4133658;28;19932;-85
2024/02/16 09:11:17;;;;;;;;;;;;;;;10.57;100.00;100926.34;4113680;28;19933;-84
2024/02/16 09:13:38;;;;;;;;;;;;;;;10.58;100.00;100914.53;4133923;28;19933;-83
2024/02/16 09:16:00;;;;;;;;;;;;;;;10.61;100.00;100911.50;4134547;28;19980;-85
2024/02/16 09:18:20;;;;;;;;;;;;;;;10.62;100.00;100921.25;4138525;28;19973;-84
2024/02/16 09:20:41;;;;;;;;;;;;;;;10.65;100.00;100917.38;4143204;28;20005;-84
2024/02/16 09:23:02;;;;;;;;;;;;;;;10.67;100.00;100923.44;4144052;28;20021;-84
2024/02/16 09:25:25;;;;;;;;;;;;;;;10.69;100.00;100932.25;4142142;28;19932;-85
2024/02/16 09:27:49;;;;;;;;;;;;;;;10.69;100.00;100923.28;4129410;28;19972;-85
2024/02/16 09:30:11;;;;;;;;;;;;;;;10.71;100.00;100929.38;4130236;28;19977;-85
2024/02/16 09:32:32;;;;;;;;;;;;;;;10.73;100.00;100922.75;4141020;28;19936;-87
2024/02/16 09:35:01;;;;;;;;;;;;;;;10.74;100.00;100921.75;4141298;28;20324;-86
2024/02/16 09:37:22;;;;;;;;;;;;;;;10.77;100.00;100916.00;4127365;28;19965;-87
2024/02/16 09:39:43;;;;;;;;;;;;;;;10.78;100.00;100919.53;4129002;28;20021;-88
2024/02/16 09:42:04;;;;;;;;;;;;;;;10.79;100.00;100916.66;4141552;28;20033;-87
2024/02/16 09:44:26;;;;;;;;;;;;;;;10.81;100.00;100911.09;4142764;28;19936;-85
2024/02/16 09:46:56;;;;;;;;;;;;;;;10.81;100.00;100906.53;4128194;28;19977;-88
2024/02/16 09:49:20;;;;;;;;;;;;;;;10.82;100.00;100918.19;4142221;28;20061;-86
2024/02/16 09:51:43;;;;;;;;;;;;;;;10.83;100.00;100919.88;4140031;28;19980;-86
2024/02/16 09:54:08;;;;;;;;;;;;;;;10.85;100.00;100908.91;4141036;28;20327;-85
2024/02/16 09:56:28;;;;;;;;;;;;;;;10.88;100.00;100909.38;4143023;28;20025;-85
2024/02/16 09:58:51;;;;;;;;;;;;;;;10.89;100.00;100921.03;4142624;28;19938;-85
2024/02/16 10:01:19;;;;;;;;;;;;;;;10.88;100.00;100928.28;4127718;28;20414;-86
2024/02/16 10:03:47;;;;;;;;;;;;;;;10.89;100.00;100919.16;4142632;28;20368;-85
2024/02/16 10:06:22;;;;;;;;;;;;;;;10.89;100.00;100929.97;4138882;28;20041;-84
2024/02/16 10:08:51;;;;;;;;;;;;;;;10.91;100.00;100924.38;4145113;28;19948;-87
2024/02/16 10:11:12;;;;;;;;;;;;;;;10.92;100.00;100932.31;4144060;28;19960;-85
2024/02/16 10:13:42;;;;;;;;;;;;;;;10.93;100.00;100935.88;4140210;28;19992;-87
2024/02/16 10:16:08;;;;;;;;;;;;;;;10.96;100.00;100930.13;4126644;28;19932;-86
2024/02/16 10:18:32;;;;;;;;;;;;;;;11.00;100.00;100939.56;4129335;28;19936;-85
2024/02/16 10:20:53;;;;;;;;;;;;;;;11.02;100.00;100945.66;4124018;28;19985;-86
2024/02/16 10:23:15;;;;;;;;;;;;;;;11.04;100.00;100940.91;4124871;28;19977;-85
2024/02/16 10:25:49;;;;;;;;;;;;;;;11.05;100.00;100936.31;4098265;28;20519;-87
2024/02/16 10:28:14;;;;;;;;;;;;;;;11.07;99.92;100928.91;4127178;28;19937;-85
2024/02/16 10:30:39;;;;;;;;;;;;;;;11.07;99.77;100923.50;4126324;28;19933;-84
2024/02/16 10:33:00;;;;;;;;;;;;;;;11.10;99.65;100925.84;4111074;28;20001;-88
2024/02/16 10:35:24;;;;;;;;;;;;;;;11.11;99.67;100932.91;4125293;28;20505;-87
2024/02/16 10:37:55;;;;;;;;;;;;;;;11.15;99.26;100918.06;4112639;28;20001;-87
2024/02/16 10:40:29;;;;;;;;;;;;;;;11.17;99.22;100914.16;4124410;28;20464;-86
2024/02/16 10:42:50;;;;;;;;;;;;;;;11.17;99.06;100916.88;4126144;28;19941;-87
2024/02/16 10:45:14;;;;;;;;;;;;;;;11.21;98.91;100917.34;4120027;28;19945;-86
2024/02/16 10:47:35;;;;;;;;;;;;;;;11.23;98.95;100927.97;4130167;28;19964;-86
2024/02/16 10:49:56;;;;;;;;;;;;;;;11.23;98.90;100922.56;4126322;28;19937;-87
2024/02/16 10:52:18;;;;;;;;;;;;;;;11.23;98.87;100914.47;4128521;28;19956;-88
2024/02/16 10:54:40;;;;;;;;;;;;;;;11.24;98.83;100911.59;4109672;28;20456;-86
2024/02/16 10:57:03;;;;;;;;;;;;;;;11.25;98.95;100915.13;4123382;28;19932;-84
2024/02/16 10:59:28;;;;;;;;;;;;;;;11.28;98.61;100907.47;4124904;28;19952;-87
2024/02/16 11:01:49;;;;;;;;;;;;;;;11.29;98.52;100906.47;4123367;28;19997;-84
2024/02/16 11:04:15;;;;;;;;;;;;;;;11.29;98.29;100905.66;4122933;28;20289;-83
2024/02/16 11:06:48;;;;;;;;;;;;;;;11.30;98.46;100910.88;4122116;28;19937;-85
2024/02/16 11:09:10;;;;;;;;;;;;;;;11.31;98.12;100901.72;4122574;28;19933;-84
2024/02/16 11:11:31;;;;;;;;;;;;;;;11.31;98.31;100899.03;4123727;28;19936;-85
2024/02/16 11:13:55;;;;;;;;;;;;;;;11.32;98.27;100894.47;4125547;28;19981;-86
2024/02/16 11:16:16;;;;;;;;;;;;;;;11.32;98.33;100887.19;4124171;28;20339;-83
2024/02/16 11:18:39;;;;;;;;;;;;;;;11.33;98.40;100890.72;4138849;28;20021;-85
2024/02/16 11:21:14;;;;;;;;;;;;;;;11.33;98.10;100886.19;4140827;28;19933;-85
2024/02/16 11:23:35;;;;;;;;;;;;;;;11.35;98.29;100884.13;4125753;28;20445;-85
2024/02/16 11:26:06;;;;;;;;;;;;;;;11.36;97.83;100879.56;4139912;28;19976;-87
2024/02/16 11:28:30;;;;;;;;;;;;;;;11.39;98.02;100875.66;4126541;28;19976;-85
2024/02/16 11:30:52;;;;;;;;;;;;;;;11.40;97.97;100880.91;4126662;28;20471;-85
2024/02/16 11:33:14;;;;;;;;;;;;;;;11.42;98.06;100870.72;4139381;28;19972;-85
2024/02/16 11:35:38;;;;;;;;;;;;;;;11.42;97.85;100870.72;4139764;28;20333;-83
2024/02/16 11:37:59;;;;;;;;;;;;;;;11.45;97.51;100878.47;4139833;28;19933;-87
2024/02/16 11:40:23;;;;;;;;;;;;;;;11.46;97.37;100869.34;4137580;28;19987;-84
2024/02/16 11:42:47;;;;;;;;;;;;;;;11.47;97.29;100854.81;4139298;28;20280;-85
2024/02/16 11:45:11;;;;;;;;;;;;;;;11.49;97.18;100881.69;4139096;28;19937;-86
2024/02/16 11:47:33;;;;;;;;;;;;;;;11.53;97.03;100861.34;4140721;28;19932;-85
2024/02/16 11:50:02;;;;;;;;;;;;;;;11.56;96.70;100852.06;4139859;28;20363;-82
2024/02/16 11:52:22;;;;;;;;;;;;;;;11.59;96.78;100855.22;4123081;28;19977;-83
2024/02/16 11:54:45;;;;;;;;;;;;;;;11.61;96.42;100842.34;4142868;28;20670;-84
2024/02/16 11:57:06;;;;;;;;;;;;;;;11.65;96.73;100851.81;4127060;28;19977;-83
2024/02/16 11:59:27;;;;;;;;;;;;;;;11.68;96.77;100847.91;4141623;28;20399;-80
2024/02/16 12:01:54;;;;;;;;;;;;;;;11.71;96.63;100851.06;4144250;28;20013;-81
2024/02/16 12:04:21;;;;;;;;;;;;;;;11.75;96.42;100854.25;4147032;28;20312;-83
2024/02/16 12:06:45;;;;;;;;;;;;;;;11.79;96.29;100846.63;4151231;28;19932;-85
2024/02/16 12:09:09;;;;;;;;;;;;;;;11.82;96.45;100852.50;4151067;28;19933;-85
2024/02/16 12:11:30;;;;;;;;;;;;;;;11.86;96.35;100858.38;4131343;28;20024;-81
2024/02/16 12:13:54;;;;;;;;;;;;;;;11.89;96.09;100868.84;4148671;28;19936;-82